Und Birlik — TCCA6 — position and weather

sailwx.info

Track history (hours):
 
Tides and Currents Weather Stations Pressure Air Temp Water Temp Dewpoint Dewpoint Depression Visibility Wind Speed Wind Dir Waves Ship Positions

Und Birlik

Last reported at 2018-Jul-16 15:15 UTC. Time now 2018-Jul-17 05:42 UTC.
Position N 37°23' E 024°13'.

Length 193 m; draft 6.2 m.

Type: Ship (hazmat cat A). MMSI: 271000662.

Date/timePositionNaut miles runAvg speedWind from/ knotsBaromVisibWave heightAir tempDewpointWater temp
2018-Jul-16 15:15N 37°23' E 024°13'519.2
2018-Jul-16 15:00N 37°19' E 024°09'1319.9
2018-Jul-16 14:20N 37°08' E 023°60'720.3
2018-Jul-16 14:00N 37°03' E 023°55'1020.6
2018-Jul-16 13:30N 36°55' E 023°47'1020.8
2018-Jul-16 13:00N 36°46' E 023°39'1120.7
2018-Jul-16 12:29N 36°39' E 023°30'1920.3
2018-Jul-16 11:33N 36°26' E 023°13'119.7
2018-Jul-16 11:30N 36°25' E 023°12'62519.6
2018-Jul-15 03:38N 44°08' E 014°02'320.2
2018-Jul-15 03:29N 44°11' E 013°59'1120.5
2018-Jul-15 02:56N 44°20' E 013°51'920.7
2018-Jul-15 02:30N 44°28' E 013°44'1020.6
2018-Jul-15 02:00N 44°36' E 013°36'1020.5
2018-Jul-15 01:30N 44°45' E 013°28'1020.5
2018-Jul-15 01:00N 44°54' E 013°20'1020.7
2018-Jul-15 00:30N 45°02' E 013°13'1020.2
2018-Jul-15 00:00N 45°11' E 013°06'1020.4
2018-Jul-14 23:30N 45°21' E 013°04'1019.9
2018-Jul-14 23:00N 45°29' E 013°13'1019.5
2018-Jul-14 22:30N 45°35' E 013°25'1019.4
2018-Jul-14 22:00N 45°39' E 013°37'510.8
2018-Jul-14 21:30N 45°39' E 013°45'0 0.0
2018-Jul-14 20:54N 45°39' E 013°45'0 0.0
2018-Jul-14 20:21N 45°39' E 013°45'0 0.0
2018-Jul-14 20:00N 45°39' E 013°45'0 0.0
2018-Jul-14 19:24N 45°39' E 013°45'0 0.0
2018-Jul-14 19:00N 45°39' E 013°45'0 0.0
2018-Jul-14 18:12N 45°39' E 013°45'0 0.0
2018-Jul-14 18:00N 45°39' E 013°45'0 0.0
2018-Jul-14 17:18N 45°39' E 013°45'0 0.0
2018-Jul-14 17:00N 45°39' E 013°45'0 0.0
2018-Jul-14 16:24N 45°39' E 013°45'0 0.0
2018-Jul-14 15:48N 45°39' E 013°45'0 0.0
2018-Jul-14 15:30N 45°39' E 013°45'0 0.0
2018-Jul-14 14:51N 45°39' E 013°45'0 0.0
2018-Jul-14 14:30N 45°39' E 013°45'0 0.0
2018-Jul-14 13:27N 45°39' E 013°45'0 0.0
2018-Jul-14 13:00N 45°39' E 013°45'0 0.0
2018-Jul-14 12:24N 45°39' E 013°45'0 0.0
2018-Jul-14 12:00N 45°39' E 013°45'0 0.0
2018-Jul-14 11:12N 45°39' E 013°45'0 0.0
2018-Jul-14 10:57N 45°39' E 013°45'0 0.0
2018-Jul-14 10:30N 45°39' E 013°45'0 0.0
2018-Jul-14 10:00N 45°39' E 013°45'0 0.0
2018-Jul-14 09:30N 45°39' E 013°45'0 0.0
2018-Jul-14 09:00N 45°39' E 013°45'0 0.0
2018-Jul-14 07:46N 45°39' E 013°45'1 2.5
2018-Jul-14 07:30N 45°39' E 013°44'510.0
2018-Jul-14 07:00N 45°38' E 013°37'1020.3
2018-Jul-14 06:30N 45°32' E 013°26'1020.3
2018-Jul-14 06:00N 45°24' E 013°16'1019.2
2018-Jul-14 05:31N 45°15' E 013°16'1020.7
2018-Jul-14 05:01N 45°05' E 013°20'1020.4
2018-Jul-14 04:30N 44°55' E 013°25'1020.3
2018-Jul-14 04:00N 44°47' E 013°33'1020.3
2018-Jul-14 03:30N 44°38' E 013°41'1020.2
2018-Jul-14 03:01N 44°30' E 013°48'1020.1
2018-Jul-14 02:31N 44°21' E 013°56'1020.3
2018-Jul-14 02:01N 44°13' E 014°03'1020.3
2018-Jul-14 01:30N 44°05' E 014°12'60317.7
2018-Jul-12 15:21N 37°09' E 023°47'3420.8
2018-Jul-12 13:45N 37°37' E 024°09'1020.7
2018-Jul-12 13:17N 37°45' E 024°16'4521.0
2018-Jul-12 11:09N 38°21' E 024°49'9620.9
2018-Jul-12 06:34N 39°45' E 025°48'  
2018-Jul-08 06:30N 44°08' E 014°02'1019.9
2018-Jul-08 06:00N 44°16' E 013°54'1019.9
2018-Jul-08 05:30N 44°25' E 013°46'1020.0
2018-Jul-08 05:00N 44°33' E 013°39'1019.9
2018-Jul-08 04:30N 44°41' E 013°32'1019.7
2018-Jul-08 04:00N 44°49' E 013°24'1019.9
2018-Jul-08 03:30N 44°57' E 013°15'1019.8
2018-Jul-08 03:00N 45°06' E 013°09'1019.7
2018-Jul-08 02:30N 45°16' E 013°05'918.0
2018-Jul-08 02:00N 45°25' E 013°07'1019.7
2018-Jul-08 01:29N 45°31' E 013°18'919.5
2018-Jul-08 01:00N 45°36' E 013°30'918.8
2018-Jul-08 00:30N 45°39' E 013°43'2 2.2
2018-Jul-07 23:43N 45°39' E 013°45'0 0.0
2018-Jul-07 22:37N 45°39' E 013°45'0 0.0
2018-Jul-07 22:13N 45°39' E 013°45'0 0.0
2018-Jul-07 21:43N 45°39' E 013°45'0 0.0
2018-Jul-07 21:19N 45°39' E 013°45'0 0.0
2018-Jul-07 20:55N 45°39' E 013°45'0 0.0
2018-Jul-07 20:25N 45°39' E 013°45'0 0.0
2018-Jul-07 19:55N 45°39' E 013°45'0 0.0
2018-Jul-07 19:28N 45°39' E 013°45'0 0.0
2018-Jul-07 18:31N 45°39' E 013°45'0 0.0
2018-Jul-07 18:22N 45°39' E 013°45'0 0.0
2018-Jul-07 17:52N 45°39' E 013°45'0 0.0
2018-Jul-07 17:07N 45°39' E 013°45'0 0.0
2018-Jul-07 16:43N 45°39' E 013°45'0 0.0
2018-Jul-07 16:25N 45°39' E 013°45'0 0.0
2018-Jul-07 15:37N 45°39' E 013°45'0 0.0
2018-Jul-07 15:13N 45°39' E 013°45'0 0.0
2018-Jul-07 14:49N 45°39' E 013°45'0 0.0
2018-Jul-07 14:28N 45°39' E 013°45'0 0.0
2018-Jul-07 13:49N 45°39' E 013°45'0 0.0
2018-Jul-07 13:25N 45°39' E 013°45'0 0.0
2018-Jul-07 12:58N 45°39' E 013°45'0 0.0
2018-Jul-07 12:28N 45°39' E 013°45'0 0.0
2018-Jul-07 11:58N 45°39' E 013°45'0 0.0
2018-Jul-07 11:22N 45°39' E 013°45'0 0.0
2018-Jul-07 10:55N 45°39' E 013°45'0 0.0
2018-Jul-07 10:21N 45°39' E 013°45'1 2.2
2018-Jul-07 10:00N 45°39' E 013°44'612.7
2018-Jul-07 09:30N 45°37' E 013°36'1019.8
2018-Jul-07 09:01N 45°31' E 013°25'1019.8
2018-Jul-07 08:30N 45°24' E 013°15'919.0
2018-Jul-07 08:01N 45°15' E 013°15'1019.8
2018-Jul-07 07:31N 45°05' E 013°20'1019.9
2018-Jul-07 07:01N 44°56' E 013°25'1020.3
2018-Jul-07 06:30N 44°47' E 013°33'1020.1
2018-Jul-07 06:01N 44°39' E 013°40'1019.9
2018-Jul-07 05:30N 44°30' E 013°48'1020.2
2018-Jul-07 05:00N 44°22' E 013°55'  
Track history (hours):
 
Tides and Currents Weather Stations Pressure Air Temp Water Temp Dewpoint Dewpoint Depression Visibility Wind Speed Wind Dir Waves Ship Positions

Und Birlik

Last reported at 2018-Jul-16 15:15 UTC. Time now 2018-Jul-17 05:42 UTC.
Position N 37°23' E 024°13'.

Length 193 m; draft 6.2 m.

Type: Ship (hazmat cat A). MMSI: 271000662.

Date/timePositionNaut miles runAvg speedWind from/ knotsBaromVisibWave heightAir tempDewpointWater temp
2018-Jul-16 15:15N 37°23' E 024°13'519.2
2018-Jul-16 15:00N 37°19' E 024°09'1319.9
2018-Jul-16 14:20N 37°08' E 023°60'720.3
2018-Jul-16 14:00N 37°03' E 023°55'1020.6
2018-Jul-16 13:30N 36°55' E 023°47'1020.8
2018-Jul-16 13:00N 36°46' E 023°39'1120.7
2018-Jul-16 12:29N 36°39' E 023°30'1920.3
2018-Jul-16 11:33N 36°26' E 023°13'119.7
2018-Jul-16 11:30N 36°25' E 023°12'62519.6
2018-Jul-15 03:38N 44°08' E 014°02'320.2
2018-Jul-15 03:29N 44°11' E 013°59'1120.5
2018-Jul-15 02:56N 44°20' E 013°51'920.7
2018-Jul-15 02:30N 44°28' E 013°44'1020.6
2018-Jul-15 02:00N 44°36' E 013°36'1020.5
2018-Jul-15 01:30N 44°45' E 013°28'1020.5
2018-Jul-15 01:00N 44°54' E 013°20'1020.7
2018-Jul-15 00:30N 45°02' E 013°13'1020.2
2018-Jul-15 00:00N 45°11' E 013°06'1020.4
2018-Jul-14 23:30N 45°21' E 013°04'1019.9
2018-Jul-14 23:00N 45°29' E 013°13'1019.5
2018-Jul-14 22:30N 45°35' E 013°25'1019.4
2018-Jul-14 22:00N 45°39' E 013°37'510.8
2018-Jul-14 21:30N 45°39' E 013°45'0 0.0
2018-Jul-14 20:54N 45°39' E 013°45'0 0.0
2018-Jul-14 20:21N 45°39' E 013°45'0 0.0
2018-Jul-14 20:00N 45°39' E 013°45'0 0.0
2018-Jul-14 19:24N 45°39' E 013°45'0 0.0
2018-Jul-14 19:00N 45°39' E 013°45'0 0.0
2018-Jul-14 18:12N 45°39' E 013°45'0 0.0
2018-Jul-14 18:00N 45°39' E 013°45'0 0.0
2018-Jul-14 17:18N 45°39' E 013°45'0 0.0
2018-Jul-14 17:00N 45°39' E 013°45'0 0.0
2018-Jul-14 16:24N 45°39' E 013°45'0 0.0
2018-Jul-14 15:48N 45°39' E 013°45'0 0.0
2018-Jul-14 15:30N 45°39' E 013°45'0 0.0
2018-Jul-14 14:51N 45°39' E 013°45'0 0.0
2018-Jul-14 14:30N 45°39' E 013°45'0 0.0
2018-Jul-14 13:27N 45°39' E 013°45'0 0.0
2018-Jul-14 13:00N 45°39' E 013°45'0 0.0
2018-Jul-14 12:24N 45°39' E 013°45'0 0.0
2018-Jul-14 12:00N 45°39' E 013°45'0 0.0
2018-Jul-14 11:12N 45°39' E 013°45'0 0.0
2018-Jul-14 10:57N 45°39' E 013°45'0 0.0
2018-Jul-14 10:30N 45°39' E 013°45'0 0.0
2018-Jul-14 10:00N 45°39' E 013°45'0 0.0
2018-Jul-14 09:30N 45°39' E 013°45'0 0.0
2018-Jul-14 09:00N 45°39' E 013°45'0 0.0
2018-Jul-14 07:46N 45°39' E 013°45'1 2.5
2018-Jul-14 07:30N 45°39' E 013°44'510.0
2018-Jul-14 07:00N 45°38' E 013°37'1020.3
2018-Jul-14 06:30N 45°32' E 013°26'1020.3
2018-Jul-14 06:00N 45°24' E 013°16'1019.2
2018-Jul-14 05:31N 45°15' E 013°16'1020.7
2018-Jul-14 05:01N 45°05' E 013°20'1020.4
2018-Jul-14 04:30N 44°55' E 013°25'1020.3
2018-Jul-14 04:00N 44°47' E 013°33'1020.3
2018-Jul-14 03:30N 44°38' E 013°41'1020.2
2018-Jul-14 03:01N 44°30' E 013°48'1020.1
2018-Jul-14 02:31N 44°21' E 013°56'1020.3
2018-Jul-14 02:01N 44°13' E 014°03'1020.3
2018-Jul-14 01:30N 44°05' E 014°12'60317.7
2018-Jul-12 15:21N 37°09' E 023°47'3420.8
2018-Jul-12 13:45N 37°37' E 024°09'1020.7
2018-Jul-12 13:17N 37°45' E 024°16'4521.0
2018-Jul-12 11:09N 38°21' E 024°49'9620.9
2018-Jul-12 06:34N 39°45' E 025°48'  
2018-Jul-08 06:30N 44°08' E 014°02'1019.9
2018-Jul-08 06:00N 44°16' E 013°54'1019.9
2018-Jul-08 05:30N 44°25' E 013°46'1020.0
2018-Jul-08 05:00N 44°33' E 013°39'1019.9
2018-Jul-08 04:30N 44°41' E 013°32'1019.7
2018-Jul-08 04:00N 44°49' E 013°24'1019.9
2018-Jul-08 03:30N 44°57' E 013°15'1019.8
2018-Jul-08 03:00N 45°06' E 013°09'1019.7
2018-Jul-08 02:30N 45°16' E 013°05'918.0
2018-Jul-08 02:00N 45°25' E 013°07'1019.7
2018-Jul-08 01:29N 45°31' E 013°18'919.5
2018-Jul-08 01:00N 45°36' E 013°30'918.8
2018-Jul-08 00:30N 45°39' E 013°43'2 2.2
2018-Jul-07 23:43N 45°39' E 013°45'0 0.0
2018-Jul-07 22:37N 45°39' E 013°45'0 0.0
2018-Jul-07 22:13N 45°39' E 013°45'0 0.0
2018-Jul-07 21:43N 45°39' E 013°45'0 0.0
2018-Jul-07 21:19N 45°39' E 013°45'0 0.0
2018-Jul-07 20:55N 45°39' E 013°45'0 0.0
2018-Jul-07 20:25N 45°39' E 013°45'0 0.0
2018-Jul-07 19:55N 45°39' E 013°45'0 0.0
2018-Jul-07 19:28N 45°39' E 013°45'0 0.0
2018-Jul-07 18:31N 45°39' E 013°45'0 0.0
2018-Jul-07 18:22N 45°39' E 013°45'0 0.0
2018-Jul-07 17:52N 45°39' E 013°45'0 0.0
2018-Jul-07 17:07N 45°39' E 013°45'0 0.0
2018-Jul-07 16:43N 45°39' E 013°45'0 0.0
2018-Jul-07 16:25N 45°39' E 013°45'0 0.0
2018-Jul-07 15:37N 45°39' E 013°45'0 0.0
2018-Jul-07 15:13N 45°39' E 013°45'0 0.0
2018-Jul-07 14:49N 45°39' E 013°45'0 0.0
2018-Jul-07 14:28N 45°39' E 013°45'0 0.0
2018-Jul-07 13:49N 45°39' E 013°45'0 0.0
2018-Jul-07 13:25N 45°39' E 013°45'0 0.0
2018-Jul-07 12:58N 45°39' E 013°45'0 0.0
2018-Jul-07 12:28N 45°39' E 013°45'0 0.0
2018-Jul-07 11:58N 45°39' E 013°45'0 0.0
2018-Jul-07 11:22N 45°39' E 013°45'0 0.0
2018-Jul-07 10:55N 45°39' E 013°45'0 0.0
2018-Jul-07 10:21N 45°39' E 013°45'1 2.2
2018-Jul-07 10:00N 45°39' E 013°44'612.7
2018-Jul-07 09:30N 45°37' E 013°36'1019.8
2018-Jul-07 09:01N 45°31' E 013°25'1019.8
2018-Jul-07 08:30N 45°24' E 013°15'919.0
2018-Jul-07 08:01N 45°15' E 013°15'1019.8
2018-Jul-07 07:31N 45°05' E 013°20'1019.9
2018-Jul-07 07:01N 44°56' E 013°25'1020.3
2018-Jul-07 06:30N 44°47' E 013°33'1020.1
2018-Jul-07 06:01N 44°39' E 013°40'1019.9
2018-Jul-07 05:30N 44°30' E 013°48'1020.2
2018-Jul-07 05:00N 44°22' E 013°55'  

Dump ship's entire track history